createdAt,value
2019-03-16T00:01:41.503Z,62.30
2019-03-16T00:04:09.762Z,62.20
2019-03-16T00:06:37.992Z,62.10
2019-03-16T00:09:07.062Z,62.20
2019-03-16T00:11:35.305Z,61.90
2019-03-16T00:14:03.583Z,61.90
2019-03-16T00:16:31.797Z,61.80
2019-03-16T00:19:00.057Z,61.80
2019-03-16T00:21:28.356Z,61.80
2019-03-16T00:23:56.620Z,61.70
2019-03-16T00:26:25.018Z,61.70
2019-03-16T00:28:53.648Z,61.70
2019-03-16T00:31:22.022Z,61.50
2019-03-16T00:33:50.270Z,61.60
2019-03-16T00:36:18.514Z,61.50
2019-03-16T00:38:46.762Z,61.50
2019-03-16T00:41:15.015Z,61.50
2019-03-16T00:43:43.240Z,61.40
2019-03-16T00:46:11.472Z,61.40
2019-03-16T00:48:39.809Z,61.60
2019-03-16T00:51:08.048Z,61.40
2019-03-16T00:53:36.272Z,61.40
2019-03-16T00:56:06.513Z,61.40
2019-03-16T00:58:34.753Z,61.40
2019-03-16T01:01:02.978Z,61.40
2019-03-16T01:03:31.407Z,61.30
2019-03-16T01:05:59.634Z,61.40
2019-03-16T01:08:27.874Z,61.40
2019-03-16T01:10:56.205Z,61.30
2019-03-16T01:13:24.433Z,61.30
2019-03-16T01:15:52.678Z,61.40
2019-03-16T01:18:20.921Z,61.40
2019-03-16T01:20:49.297Z,61.70
2019-03-16T01:23:17.903Z,61.80
2019-03-16T01:25:46.370Z,61.90
2019-03-16T01:28:14.594Z,61.90
2019-03-16T01:30:43.165Z,62.00
2019-03-16T01:33:11.509Z,62.10
2019-03-16T01:35:39.758Z,62.10
2019-03-16T01:38:07.989Z,62.20
2019-03-16T01:40:36.241Z,62.20
2019-03-16T01:43:05.243Z,62.40
2019-03-16T01:45:33.469Z,63.40
2019-03-16T01:48:01.717Z,62.60
2019-03-16T01:50:29.965Z,62.70
2019-03-16T01:52:58.193Z,62.80
2019-03-16T01:55:26.437Z,62.90
2019-03-16T01:57:54.666Z,62.90
2019-03-16T02:00:22.906Z,62.90
2019-03-16T02:02:55.633Z,63.00
2019-03-16T02:05:21.145Z,63.10
2019-03-16T02:07:49.372Z,63.10
2019-03-16T02:10:17.626Z,63.10
2019-03-16T02:12:45.861Z,63.10
2019-03-16T02:15:14.102Z,63.10
2019-03-16T02:17:42.346Z,63.20
2019-03-16T02:20:10.581Z,63.20
2019-03-16T02:22:38.822Z,63.20
2019-03-16T02:25:08.203Z,63.30
2019-03-16T02:27:36.429Z,63.30
2019-03-16T02:30:10.562Z,63.20
2019-03-16T02:32:39.353Z,63.40
2019-03-16T02:35:08.078Z,63.20
2019-03-16T02:37:36.349Z,63.40
2019-03-16T02:40:06.735Z,63.10
2019-03-16T02:42:34.980Z,63.20
2019-03-16T02:45:04.354Z,63.20
2019-03-16T02:47:32.622Z,63.20
2019-03-16T02:50:00.937Z,63.20
2019-03-16T02:52:29.174Z,63.40
2019-03-16T02:54:57.403Z,63.30
2019-03-16T02:57:25.640Z,63.40
2019-03-16T02:59:53.900Z,63.30
2019-03-16T03:02:22.167Z,63.30
2019-03-16T03:04:50.405Z,63.40
2019-03-16T03:07:20.805Z,63.20
2019-03-16T03:09:48.692Z,63.20
2019-03-16T03:12:16.931Z,63.20
2019-03-16T03:14:45.182Z,63.20
2019-03-16T03:17:14.989Z,63.20
2019-03-16T03:19:43.222Z,63.00
2019-03-16T03:22:11.463Z,63.10
2019-03-16T03:24:44.007Z,63.10
2019-03-16T03:27:09.678Z,63.10
2019-03-16T03:29:37.922Z,63.10
2019-03-16T03:32:06.221Z,63.10
2019-03-16T03:34:34.702Z,63.00
2019-03-16T03:37:02.930Z,63.10
2019-03-16T03:39:31.188Z,62.90
2019-03-16T03:41:59.429Z,62.80
2019-03-16T03:44:27.654Z,62.80
2019-03-16T03:46:55.911Z,62.80
2019-03-16T03:49:24.149Z,62.90
2019-03-16T03:51:52.383Z,62.80
2019-03-16T03:54:20.725Z,62.70
2019-03-16T03:56:48.949Z,62.90
2019-03-16T03:59:17.299Z,62.90
2019-03-16T04:01:45.628Z,63.00
2019-03-16T04:04:15.963Z,63.00
2019-03-16T04:06:43.818Z,62.90
2019-03-16T04:09:12.085Z,63.10
2019-03-16T04:11:40.340Z,63.10
2019-03-16T04:14:08.559Z,63.20
2019-03-16T04:16:36.889Z,63.30
2019-03-16T04:19:05.176Z,63.20
2019-03-16T04:21:35.115Z,63.30
2019-03-16T04:24:03.384Z,63.30
2019-03-16T04:26:31.887Z,63.20
2019-03-16T04:29:00.134Z,63.20
2019-03-16T04:31:28.486Z,63.30
2019-03-16T04:33:56.719Z,63.40
2019-03-16T04:36:25.183Z,63.60
2019-03-16T04:38:53.674Z,63.50
2019-03-16T04:41:22.012Z,63.50
2019-03-16T04:43:50.329Z,63.50
2019-03-16T04:46:18.643Z,63.60
2019-03-16T04:48:46.878Z,63.60
2019-03-16T04:51:15.110Z,63.70
2019-03-16T04:53:43.362Z,63.70
2019-03-16T04:56:11.618Z,63.80
2019-03-16T04:58:39.906Z,63.70
2019-03-16T05:01:08.173Z,63.80
2019-03-16T05:03:36.417Z,63.90
2019-03-16T05:06:04.946Z,63.90
2019-03-16T05:08:33.260Z,64.60
2019-03-16T05:11:01.492Z,63.80
2019-03-16T05:13:29.722Z,63.90
2019-03-16T05:15:57.962Z,64.00
2019-03-16T05:18:26.203Z,64.00
2019-03-16T05:20:54.444Z,64.00
2019-03-16T05:23:22.758Z,64.10
2019-03-16T05:25:50.988Z,64.10
2019-03-16T05:28:19.218Z,64.10
2019-03-16T05:30:47.462Z,64.10
2019-03-16T05:33:15.706Z,64.20
2019-03-16T05:35:44.029Z,64.10
2019-03-16T05:38:12.498Z,64.30
2019-03-16T05:40:42.366Z,64.30
2019-03-16T05:43:10.612Z,64.20
2019-03-16T05:45:38.877Z,64.20
2019-03-16T05:48:07.188Z,64.20
2019-03-16T05:50:35.409Z,64.30
2019-03-16T05:53:03.656Z,64.20
2019-03-16T05:55:31.894Z,64.30
2019-03-16T05:58:00.116Z,64.40
2019-03-16T06:00:28.518Z,64.50
2019-03-16T06:02:56.747Z,64.50
2019-03-16T06:05:24.985Z,64.50
2019-03-16T06:07:53.304Z,64.60
2019-03-16T06:10:21.536Z,64.70
2019-03-16T06:12:49.929Z,65.10
2019-03-16T06:15:18.254Z,64.70
2019-03-16T06:17:47.788Z,64.80
2019-03-16T06:20:16.027Z,64.80
2019-03-16T06:22:44.273Z,64.90
2019-03-16T06:25:14.131Z,65.10
2019-03-16T06:27:42.365Z,65.20
2019-03-16T06:30:13.861Z,65.20
2019-03-16T06:32:42.103Z,65.30
2019-03-16T06:35:23.441Z,65.30
2019-03-16T06:37:40.682Z,65.60
2019-03-16T06:40:10.619Z,65.90
2019-03-16T06:42:38.854Z,66.40
2019-03-16T06:45:08.920Z,67.30
2019-03-16T06:47:37.148Z,66.50
2019-03-16T06:50:13.793Z,66.80
2019-03-16T06:52:42.167Z,66.80
2019-03-16T06:55:10.433Z,67.20
2019-03-16T06:57:38.665Z,67.30
2019-03-16T07:00:10.194Z,68.00
2019-03-16T07:02:38.431Z,67.90
2019-03-16T07:05:09.506Z,68.20
2019-03-16T07:07:37.750Z,68.00
2019-03-16T07:10:12.088Z,67.80
2019-03-16T07:12:40.322Z,68.70
2019-03-16T07:15:10.110Z,67.70
2019-03-16T07:17:38.337Z,68.00
2019-03-16T07:20:11.478Z,67.90
2019-03-16T07:22:39.734Z,67.80
2019-03-16T07:25:08.139Z,67.50
2019-03-16T07:27:36.374Z,67.40
2019-03-16T07:30:07.909Z,67.50
2019-03-16T07:32:36.139Z,67.30
2019-03-16T07:35:06.336Z,67.30
2019-03-16T07:37:34.581Z,67.30
2019-03-16T07:40:04.053Z,67.30
2019-03-16T07:42:32.486Z,67.30
2019-03-16T07:45:07.966Z,67.30
2019-03-16T07:47:30.700Z,67.30
2019-03-16T07:49:58.947Z,67.50
2019-03-16T07:52:27.188Z,67.70
2019-03-16T07:54:55.418Z,67.30
2019-03-16T07:57:23.729Z,67.40
2019-03-16T07:59:52.062Z,67.40
2019-03-16T08:02:20.331Z,67.30
2019-03-16T08:04:48.562Z,67.40
2019-03-16T08:07:16.899Z,67.60
2019-03-16T08:09:45.126Z,67.50
2019-03-16T08:12:13.358Z,67.70
2019-03-16T08:14:41.611Z,67.70
2019-03-16T08:17:09.842Z,67.70
2019-03-16T08:19:39.714Z,67.80
2019-03-16T08:22:07.958Z,67.80
2019-03-16T08:24:36.198Z,67.60
2019-03-16T08:27:07.475Z,67.50
2019-03-16T08:29:35.048Z,67.80
2019-03-16T08:32:03.349Z,67.50
2019-03-16T08:34:31.752Z,67.60
2019-03-16T08:37:00.002Z,67.50
2019-03-16T08:39:28.241Z,67.50
2019-03-16T08:41:56.578Z,67.50
2019-03-16T08:44:25.060Z,67.40
2019-03-16T08:46:53.295Z,67.40
2019-03-16T08:49:21.534Z,67.50
2019-03-16T08:51:49.783Z,67.50
2019-03-16T08:54:18.098Z,67.40
2019-03-16T08:56:46.339Z,67.40
2019-03-16T08:59:14.729Z,68.40
2019-03-16T09:01:43.027Z,67.40
2019-03-16T09:04:11.301Z,67.30
2019-03-16T09:06:39.752Z,67.30
2019-03-16T09:09:07.994Z,67.30
2019-03-16T09:11:36.234Z,67.30
2019-03-16T09:14:05.388Z,67.40
2019-03-16T09:16:33.619Z,67.50
2019-03-16T09:19:01.848Z,67.30
2019-03-16T09:21:30.161Z,67.30
2019-03-16T09:23:58.401Z,67.30
2019-03-16T09:26:26.653Z,67.20
2019-03-16T09:28:59.938Z,67.40
2019-03-16T09:31:24.939Z,67.60
2019-03-16T09:33:53.189Z,67.80
2019-03-16T09:36:21.667Z,67.90
2019-03-16T09:38:49.930Z,67.70
2019-03-16T09:41:18.164Z,67.60
2019-03-16T09:43:46.492Z,67.60
2019-03-16T09:46:15.101Z,67.60
2019-03-16T09:48:43.336Z,67.50
2019-03-16T09:51:11.663Z,67.10
2019-03-16T09:53:39.901Z,67.60
2019-03-16T09:56:08.159Z,66.80
2019-03-16T09:58:36.404Z,66.40
2019-03-16T10:01:04.647Z,66.00
2019-03-16T10:03:32.975Z,65.60
2019-03-16T10:06:01.232Z,65.40
2019-03-16T10:08:29.474Z,65.30
2019-03-16T10:10:57.707Z,65.10
2019-03-16T10:13:28.862Z,65.10
2019-03-16T10:16:16.560Z,64.90
2019-03-16T10:18:46.449Z,64.80
2019-03-16T10:21:14.685Z,64.50
2019-03-16T10:23:42.915Z,64.40
2019-03-16T10:26:12.654Z,64.70
2019-03-16T10:28:43.812Z,64.40
2019-03-16T10:31:10.833Z,64.40
2019-03-16T10:33:39.079Z,64.20
2019-03-16T10:36:07.306Z,63.90
2019-03-16T10:38:55.062Z,63.80
2019-03-16T10:41:23.299Z,62.90
2019-03-16T10:43:51.535Z,63.40
2019-03-16T10:46:19.772Z,63.00
2019-03-16T10:48:48.214Z,63.20
2019-03-16T10:51:16.451Z,64.20
2019-03-16T10:53:44.767Z,62.90
2019-03-16T10:56:13.037Z,63.10
2019-03-16T10:58:41.348Z,63.00
2019-03-16T11:01:09.737Z,62.90
2019-03-16T11:03:39.646Z,62.80
2019-03-16T11:06:09.709Z,62.60
2019-03-16T11:08:39.666Z,62.50
2019-03-16T11:11:07.913Z,62.30
2019-03-16T11:13:36.139Z,62.30
2019-03-16T11:16:05.310Z,62.30
2019-03-16T11:18:33.544Z,62.60
2019-03-16T11:21:01.781Z,62.30
2019-03-16T11:23:30.113Z,62.20
2019-03-16T11:25:58.345Z,62.30
2019-03-16T11:28:26.574Z,62.30
2019-03-16T11:30:54.817Z,62.00
2019-03-16T11:33:23.045Z,61.90
2019-03-16T11:35:51.282Z,61.70
2019-03-16T11:38:19.627Z,61.50
2019-03-16T11:40:47.855Z,61.30
2019-03-16T11:43:16.085Z,61.30
2019-03-16T11:45:44.343Z,61.30
2019-03-16T11:48:12.580Z,61.60
2019-03-16T11:50:41.078Z,61.00
2019-03-16T11:53:09.398Z,61.30
2019-03-16T11:55:37.635Z,61.20
2019-03-16T11:58:05.996Z,61.20
2019-03-16T12:00:34.310Z,61.00
2019-03-16T12:03:02.557Z,60.70
2019-03-16T12:05:30.794Z,60.70
2019-03-16T12:07:59.050Z,60.70
2019-03-16T12:10:27.286Z,60.60
2019-03-16T12:12:55.521Z,60.90
2019-03-16T12:15:23.842Z,60.90
2019-03-16T12:17:52.084Z,60.70
2019-03-16T12:20:20.346Z,60.50
2019-03-16T12:22:48.597Z,60.40
2019-03-16T12:25:16.848Z,59.70
2019-03-16T12:27:45.085Z,59.80
2019-03-16T12:30:14.677Z,59.80
2019-03-16T12:32:42.927Z,59.60
2019-03-16T12:35:11.169Z,59.10
2019-03-16T12:37:39.506Z,59.50
2019-03-16T12:40:14.986Z,59.50
2019-03-16T12:42:43.225Z,59.60
2019-03-16T12:45:20.037Z,59.80
2019-03-16T12:47:46.879Z,59.70
2019-03-16T12:50:15.131Z,59.70
2019-03-16T12:52:43.959Z,59.60
2019-03-16T12:55:12.633Z,59.50
2019-03-16T12:57:40.869Z,59.60
2019-03-16T13:00:15.406Z,59.20
2019-03-16T13:02:43.642Z,59.30
2019-03-16T13:05:11.873Z,59.30
2019-03-16T13:07:40.207Z,59.00
2019-03-16T13:10:11.746Z,59.20
2019-03-16T13:12:40.051Z,59.20
2019-03-16T13:15:08.931Z,58.60
2019-03-16T13:17:37.221Z,58.20
2019-03-16T13:20:16.342Z,58.60
2019-03-16T13:22:44.601Z,58.00
2019-03-16T13:25:12.889Z,58.40
2019-03-16T13:27:41.438Z,58.40
2019-03-16T13:30:17.529Z,58.20
2019-03-16T13:32:45.753Z,58.10
2019-03-16T13:35:13.993Z,58.20
2019-03-16T13:37:42.434Z,57.50
2019-03-16T13:40:14.556Z,57.50
2019-03-16T13:42:42.815Z,57.40
2019-03-16T13:45:11.117Z,56.80
2019-03-16T13:47:39.360Z,57.10
2019-03-16T13:50:20.514Z,56.80
2019-03-16T13:52:49.048Z,57.10
2019-03-16T13:55:17.615Z,56.20
2019-03-16T13:57:45.959Z,56.20
2019-03-16T14:00:16.781Z,56.80
2019-03-16T14:02:45.046Z,55.80
2019-03-16T14:05:13.330Z,56.40
2019-03-16T14:07:41.936Z,56.10
2019-03-16T14:10:19.407Z,56.20
2019-03-16T14:12:47.642Z,56.10
2019-03-16T14:15:15.890Z,56.40
2019-03-16T14:17:44.611Z,56.30
2019-03-16T14:20:14.653Z,56.20
2019-03-16T14:22:43.757Z,56.20
2019-03-16T14:25:12.079Z,56.20
2019-03-16T14:27:40.323Z,56.10
2019-03-16T14:30:34.882Z,55.80
2019-03-16T14:32:46.345Z,55.60
2019-03-16T14:35:14.589Z,55.80
2019-03-16T14:37:42.820Z,56.10
2019-03-16T14:40:13.780Z,55.40
2019-03-16T14:42:42.158Z,55.90
2019-03-16T14:45:14.027Z,55.50
2019-03-16T14:47:42.349Z,56.00
2019-03-16T14:50:19.129Z,55.80
2019-03-16T14:52:47.377Z,55.70
2019-03-16T14:55:15.677Z,55.10
2019-03-16T14:57:44.199Z,55.30
2019-03-16T15:00:17.189Z,55.40
2019-03-16T15:02:46.515Z,54.70
2019-03-16T15:05:15.059Z,55.30
2019-03-16T15:07:43.326Z,55.10
2019-03-16T15:10:14.129Z,54.80
2019-03-16T15:12:42.416Z,55.00
2019-03-16T15:15:13.443Z,54.90
2019-03-16T15:17:41.709Z,55.20
2019-03-16T15:20:10.705Z,55.10
2019-03-16T15:22:38.938Z,54.80
2019-03-16T15:25:11.251Z,54.80
2019-03-16T15:27:38.866Z,54.90
2019-03-16T15:30:23.381Z,55.00
2019-03-16T15:32:51.645Z,55.00
2019-03-16T15:35:21.171Z,54.80
2019-03-16T15:37:49.419Z,55.00
2019-03-16T15:40:17.720Z,54.90
2019-03-16T15:42:45.954Z,54.90
2019-03-16T15:45:21.562Z,55.20
2019-03-16T15:47:49.798Z,55.00
2019-03-16T15:50:18.045Z,54.50
2019-03-16T15:52:46.275Z,54.40
2019-03-16T15:55:14.502Z,54.40
2019-03-16T15:57:43.065Z,54.50
2019-03-16T16:00:16.869Z,53.90
2019-03-16T16:02:45.116Z,53.90
2019-03-16T16:05:13.339Z,53.60
2019-03-16T16:07:43.302Z,53.30
2019-03-16T16:10:15.791Z,53.50
2019-03-16T16:12:44.031Z,53.90
2019-03-16T16:15:12.347Z,53.90
2019-03-16T16:17:40.579Z,53.70
2019-03-16T16:20:18.053Z,54.00
2019-03-16T16:22:46.326Z,53.80
2019-03-16T16:25:14.792Z,53.40
2019-03-16T16:27:44.289Z,53.60
2019-03-16T16:30:13.973Z,53.60
2019-03-16T16:32:42.215Z,53.80
2019-03-16T16:35:11.791Z,53.70
2019-03-16T16:37:40.029Z,53.70
2019-03-16T16:40:11.070Z,54.00
2019-03-16T16:42:39.298Z,53.60
2019-03-16T16:45:10.801Z,53.70
2019-03-16T16:47:39.185Z,53.70
2019-03-16T16:50:13.129Z,54.40
2019-03-16T16:52:41.456Z,53.80
2019-03-16T16:55:09.933Z,54.40
2019-03-16T16:57:38.179Z,53.90
2019-03-16T17:00:12.222Z,53.60
2019-03-16T17:02:40.779Z,53.80
2019-03-16T17:05:09.034Z,53.80
2019-03-16T17:07:37.371Z,54.00
2019-03-16T17:10:08.849Z,53.70
2019-03-16T17:12:37.085Z,53.60
2019-03-16T17:15:08.876Z,53.60
2019-03-16T17:17:37.218Z,53.80
2019-03-16T17:20:08.598Z,53.70
2019-03-16T17:22:37.583Z,53.60
2019-03-16T17:25:08.476Z,53.80
2019-03-16T17:27:38.870Z,53.80
2019-03-16T17:30:15.960Z,53.70
2019-03-16T17:32:44.194Z,53.80
2019-03-16T17:35:12.413Z,53.90
2019-03-16T17:37:40.755Z,53.90
2019-03-16T17:40:12.248Z,54.00
2019-03-16T17:42:40.497Z,54.00
2019-03-16T17:45:12.732Z,54.00
2019-03-16T17:47:40.954Z,54.30
2019-03-16T17:50:10.313Z,54.00
2019-03-16T17:52:38.569Z,54.10
2019-03-16T17:55:13.493Z,54.20
2019-03-16T17:57:44.867Z,54.10
2019-03-16T18:00:15.204Z,54.20
2019-03-16T18:02:51.134Z,54.10
2019-03-16T18:05:13.705Z,54.20
2019-03-16T18:07:42.312Z,54.20
2019-03-16T18:10:11.909Z,54.30
2019-03-16T18:12:40.201Z,54.30
2019-03-16T18:15:11.950Z,54.30
2019-03-16T18:17:40.404Z,54.40
2019-03-16T18:20:11.344Z,54.40
2019-03-16T18:22:39.590Z,54.40
2019-03-16T18:25:10.262Z,54.40
2019-03-16T18:27:38.497Z,54.50
2019-03-16T18:30:12.362Z,54.50
2019-03-16T18:32:40.609Z,54.50
2019-03-16T18:35:08.846Z,54.60
2019-03-16T18:37:37.093Z,54.60
2019-03-16T18:40:10.962Z,54.50
2019-03-16T18:42:39.291Z,54.60
2019-03-16T18:45:13.007Z,54.60
2019-03-16T18:47:41.241Z,54.70
2019-03-16T18:50:09.470Z,54.70
2019-03-16T18:52:37.812Z,54.70
2019-03-16T18:55:11.585Z,54.70
2019-03-16T18:57:39.878Z,54.70
2019-03-16T19:00:11.443Z,54.70
2019-03-16T19:02:39.679Z,54.80
2019-03-16T19:05:08.941Z,54.70
2019-03-16T19:07:37.265Z,54.70
2019-03-16T19:10:16.417Z,54.80
2019-03-16T19:12:44.716Z,54.70
2019-03-16T19:15:15.299Z,54.90
2019-03-16T19:17:43.532Z,54.90
2019-03-16T19:20:13.082Z,54.80
2019-03-16T19:22:41.314Z,54.90
2019-03-16T19:25:11.791Z,54.90
2019-03-16T19:27:40.032Z,54.90
2019-03-16T19:30:15.371Z,54.90
2019-03-16T19:32:43.778Z,55.60
2019-03-16T19:35:12.286Z,54.90
2019-03-16T19:37:40.614Z,55.00
2019-03-16T19:40:17.710Z,55.00
2019-03-16T19:42:46.915Z,54.90
2019-03-16T19:45:15.653Z,54.90
2019-03-16T19:47:43.891Z,54.90
2019-03-16T19:50:16.920Z,54.90
2019-03-16T19:52:45.255Z,55.00
2019-03-16T19:55:14.230Z,54.90
2019-03-16T19:57:42.471Z,55.00
2019-03-16T20:00:15.334Z,54.90
2019-03-16T20:02:50.126Z,54.80
2019-03-16T20:05:13.709Z,54.90
2019-03-16T20:07:41.963Z,55.00
2019-03-16T20:10:13.140Z,55.00
2019-03-16T20:12:41.381Z,54.90
2019-03-16T20:15:11.435Z,54.90
2019-03-16T20:17:39.668Z,54.90
2019-03-16T20:20:10.120Z,55.00
2019-03-16T20:22:39.414Z,54.80
2019-03-16T20:25:07.993Z,54.80
2019-03-16T20:27:36.226Z,54.70
2019-03-16T20:30:12.627Z,54.80
2019-03-16T20:32:40.855Z,54.90
2019-03-16T20:35:09.466Z,54.90
2019-03-16T20:37:37.964Z,54.90
2019-03-16T20:40:09.467Z,54.80
2019-03-16T20:42:37.704Z,54.80
2019-03-16T20:45:08.701Z,54.80
2019-03-16T20:47:37.006Z,54.90
2019-03-16T20:50:08.352Z,54.80
2019-03-16T20:52:36.652Z,54.80
2019-03-16T20:55:06.360Z,54.90
2019-03-16T20:57:34.665Z,54.80
2019-03-16T21:00:04.063Z,54.90
2019-03-16T21:02:35.480Z,55.50
2019-03-16T21:05:05.545Z,54.90
2019-03-16T21:07:33.891Z,54.90
2019-03-16T21:10:02.116Z,54.90
2019-03-16T21:12:30.376Z,54.90
2019-03-16T21:14:58.660Z,55.70
2019-03-16T21:17:26.937Z,55.00
2019-03-16T21:19:55.202Z,55.00
2019-03-16T21:22:34.880Z,55.00
2019-03-16T21:24:54.305Z,55.00
2019-03-16T21:27:22.630Z,54.90
2019-03-16T21:29:50.871Z,55.00
2019-03-16T21:32:19.140Z,55.10
2019-03-16T21:34:47.429Z,55.00
2019-03-16T21:37:15.690Z,55.10
2019-03-16T21:39:43.925Z,55.10
2019-03-16T21:42:12.165Z,55.20
2019-03-16T21:44:40.418Z,55.20
2019-03-16T21:47:08.840Z,55.10
2019-03-16T21:49:37.178Z,55.20
2019-03-16T21:52:05.511Z,55.20
2019-03-16T21:54:33.776Z,55.20
2019-03-16T21:57:02.237Z,55.30
2019-03-16T21:59:30.684Z,55.30
2019-03-16T22:01:58.911Z,55.30
2019-03-16T22:04:27.153Z,55.40
2019-03-16T22:06:55.479Z,55.30
2019-03-16T22:09:23.722Z,55.30
2019-03-16T22:11:51.959Z,55.40
2019-03-16T22:14:20.513Z,55.40
2019-03-16T22:16:48.747Z,55.40
2019-03-16T22:19:17.002Z,55.40
2019-03-16T22:21:45.259Z,56.10
2019-03-16T22:24:13.517Z,55.40
2019-03-16T22:26:44.800Z,55.50
2019-03-16T22:29:14.346Z,55.40
2019-03-16T22:31:42.582Z,55.50
2019-03-16T22:34:12.445Z,55.40
2019-03-16T22:36:40.704Z,55.40
2019-03-16T22:39:08.936Z,55.50
2019-03-16T22:41:37.171Z,55.50
2019-03-16T22:44:05.425Z,55.60
2019-03-16T22:46:35.295Z,55.50
2019-03-16T22:49:03.525Z,55.60
2019-03-16T22:51:31.909Z,55.60
2019-03-16T22:54:00.153Z,55.60
2019-03-16T22:56:28.401Z,55.60
2019-03-16T22:58:56.661Z,55.70
2019-03-16T23:01:24.975Z,55.60
2019-03-16T23:04:06.029Z,55.70
2019-03-16T23:06:25.170Z,55.80
2019-03-16T23:08:53.406Z,55.70
2019-03-16T23:11:21.659Z,55.70
2019-03-16T23:13:50.181Z,55.80
2019-03-16T23:16:19.105Z,55.70
2019-03-16T23:18:47.419Z,55.70
2019-03-16T23:21:15.666Z,55.60
2019-03-16T23:23:43.893Z,55.60
2019-03-16T23:26:12.134Z,55.60
2019-03-16T23:28:40.457Z,55.70
2019-03-16T23:31:12.442Z,55.60
2019-03-16T23:33:40.286Z,55.70
2019-03-16T23:36:08.530Z,55.60
2019-03-16T23:38:36.768Z,55.60
2019-03-16T23:41:05.164Z,55.40
2019-03-16T23:43:33.424Z,55.50
2019-03-16T23:46:01.722Z,55.40
2019-03-16T23:48:29.966Z,55.40
2019-03-16T23:50:58.304Z,55.30
2019-03-16T23:53:26.557Z,55.30
2019-03-16T23:55:54.769Z,55.20
2019-03-16T23:58:23.022Z,55.00
